• Join FlightAware (Why Join?)
  • Login
  • US Flag 
11:18PM EST


 

Airport Tracker/Info


-or-


 

Live Flight TrackerFlight Track Log ✈ UCA5011 ✈ 26-Apr-2013 ✈ KIAD - KCRW

Flight Track Log - Related Links

Times and Time Zones

All times are in EDT time to prevent confusion due to time zone crossing. See the UCA5011 flight status page for this flight to view local times or setup timezone preferences in your user account.

Time Position Orientation Groundspeed Altitude Reporting Facility
EDT Latitude Longitude Course Direction KTS MPH feet Rate Location/Type
08:41AM 38.9060 -77.8016 261° West  Level Estimated
08:42AM 38.8976 -77.8699 261° West  Level Estimated
08:43AM 38.8892 -77.9382 261° West  Level Estimated
08:44AM 38.8807 -78.0064 261° West  Level Estimated
08:45AM 38.8722 -78.0747 261° West  Level Estimated
08:46AM 38.8636 -78.1429 261° West  Level Estimated
08:47AM 38.8550 -78.2111 261° West  Level Estimated
08:48AM 38.8464 -78.2793 261° West  Level Estimated
08:49AM 38.8377 -78.3474 261° West  Level Estimated
08:50AM 38.8290 -78.4156 261° West  Level Estimated
08:51AM 38.8202 -78.4837 261° West  Level Estimated
08:52AM 38.8114 -78.5518 261° West  Level Estimated
08:53AM 38.8026 -78.6199 261° West  Level Estimated
08:54AM 38.7937 -78.6880 261° West  Level Estimated
08:55AM 38.7848 -78.7561 260° West  Level Estimated
08:56AM 38.7758 -78.8242 260° West  Level Estimated
08:57AM 38.7669 -78.8922 260° West  Level Estimated
08:58AM 38.7578 -78.9602 260° West  Level Estimated
08:59AM 38.7488 -79.0282 260° West  Level Estimated
09:00AM 38.7397 -79.0962 260° West  Level Estimated
09:01AM 38.7305 -79.1642 260° West  Level Estimated
09:02AM 38.7213 -79.2321 260° West  Level Estimated
09:03AM 38.7121 -79.3000 260° West  Level Estimated
09:04AM 38.7028 -79.3680 260° West  Level Estimated
09:05AM 38.6935 -79.4359 260° West  Level Estimated
09:06AM 38.6842 -79.5037 260° West  Level Estimated
09:07AM 38.6748 -79.5716 260° West  Level Estimated
09:08AM 38.6653 -79.6394 260° West  Level Estimated
09:09AM 38.6559 -79.7073 260° West  Level Estimated
09:10AM 38.6464 -79.7751 260° West  Level Estimated
09:11AM 38.6368 -79.8429 260° West  Level Estimated
09:12AM 38.6272 -79.9106 260° West  Level Estimated
09:13AM 38.6176 -79.9784 260° West  Level Estimated
09:14AM 38.6080 -80.0461 260° West  Level Estimated
09:15AM 38.5983 -80.1138 260° West  Level Estimated
09:16AM 38.5885 -80.1815 260° West  Level Estimated
09:17AM 38.5787 -80.2492 260° West  Level Estimated
09:18AM 38.5689 -80.3169 260° West  Level Estimated
09:19AM 38.5591 -80.3845 259° West  Level Estimated
09:20AM 38.5492 -80.4521 259° West  Level Estimated
09:21AM 38.5392 -80.5198 259° West  Level Estimated
09:22AM 38.5293 -80.5873 259° West  Level Estimated
09:23AM 38.5192 -80.6549 259° West  Level Estimated
09:24AM 38.5092 -80.7225 259° West  Level Estimated
09:25AM 38.4991 -80.7900 259° West  Level Estimated
09:26AM 38.4890 -80.8575 259° West  Level Estimated
09:27AM 38.4788 -80.9250 259° West  Level Estimated
09:28AM 38.4686 -80.9925 259° West  Level Estimated
09:29AM 38.4584 -81.0599 259° West  Level Estimated
09:30AM 38.4481 -81.1273 259° West  Level Estimated
09:31AM 38.4378 -81.1948 259° West  Level Estimated
09:32AM 38.4274 -81.2622 259° West  Level Estimated
09:33AM 38.4170 -81.3296 259° West  Level Estimated
09:34AM 38.4066 -81.3969 259° West  Level Estimated